sensor_id;sensor_type;location;lat;lon;timestamp;pressure;altitude;pressure_sealevel;temperature;humidity
56518;BME280;42419;48.760;2.322;2023-04-05T00:01:23;101576.97;;;26.34;21.53
56518;BME280;42419;48.760;2.322;2023-04-05T00:03:53;101580.13;;;26.42;21.54
56518;BME280;42419;48.760;2.322;2023-04-05T00:06:23;101585.53;;;26.42;21.61
56518;BME280;42419;48.760;2.322;2023-04-05T00:08:59;101586.41;;;26.43;21.39
56518;BME280;42419;48.760;2.322;2023-04-05T00:11:26;101589.03;;;26.44;21.25
56518;BME280;42419;48.760;2.322;2023-04-05T00:13:51;101586.31;;;26.44;21.14
56518;BME280;42419;48.760;2.322;2023-04-05T00:16:18;101580.84;;;26.46;21.24
56518;BME280;42419;48.760;2.322;2023-04-05T00:18:44;101584.50;;;26.45;21.65
56518;BME280;42419;48.760;2.322;2023-04-05T00:21:10;101582.56;;;26.47;21.22
56518;BME280;42419;48.760;2.322;2023-04-05T00:23:39;101590.69;;;26.47;21.29
56518;BME280;42419;48.760;2.322;2023-04-05T00:26:05;101587.91;;;26.48;21.47
56518;BME280;42419;48.760;2.322;2023-04-05T00:28:31;101580.69;;;26.49;21.43
56518;BME280;42419;48.760;2.322;2023-04-05T00:30:56;101582.44;;;26.50;21.25
56518;BME280;42419;48.760;2.322;2023-04-05T00:33:21;101577.97;;;26.49;21.13
56518;BME280;42419;48.760;2.322;2023-04-05T00:35:46;101513.25;;;26.13;21.46
56518;BME280;42419;48.760;2.322;2023-04-05T00:38:12;101582.34;;;26.51;21.63
56518;BME280;42419;48.760;2.322;2023-04-05T00:40:37;101580.50;;;26.52;21.62
56518;BME280;42419;48.760;2.322;2023-04-05T00:43:02;101536.69;;;26.29;21.39
56518;BME280;42419;48.760;2.322;2023-04-05T00:45:28;101578.63;;;26.54;20.95
56518;BME280;42419;48.760;2.322;2023-04-05T00:47:53;101576.69;;;26.56;21.24
56518;BME280;42419;48.760;2.322;2023-04-05T00:50:19;101576.63;;;26.57;21.24
56518;BME280;42419;48.760;2.322;2023-04-05T00:52:45;101568.50;;;26.57;21.21
56518;BME280;42419;48.760;2.322;2023-04-05T00:55:11;101561.28;;;26.58;21.36
56518;BME280;42419;48.760;2.322;2023-04-05T00:57:37;101562.16;;;26.58;21.28
56518;BME280;42419;48.760;2.322;2023-04-05T01:00:04;101561.28;;;26.58;21.55
56518;BME280;42419;48.760;2.322;2023-04-05T01:02:59;101565.56;;;26.62;21.28
56518;BME280;42419;48.760;2.322;2023-04-05T01:08:21;101545.25;;;26.55;21.32
56518;BME280;42419;48.760;2.322;2023-04-05T01:10:54;101557.38;;;26.63;21.29
56518;BME280;42419;48.760;2.322;2023-04-05T01:13:24;101548.56;;;26.60;21.36
56518;BME280;42419;48.760;2.322;2023-04-05T01:15:49;101556.25;;;26.67;21.11
56518;BME280;42419;48.760;2.322;2023-04-05T01:18:15;101545.59;;;26.64;21.00
56518;BME280;42419;48.760;2.322;2023-04-05T01:20:58;101545.34;;;26.69;20.86
56518;BME280;42419;48.760;2.322;2023-04-05T01:31:59;101532.63;;;26.71;21.11
56518;BME280;42419;48.760;2.322;2023-04-05T01:34:50;101532.47;;;26.74;20.93
56518;BME280;42419;48.760;2.322;2023-04-05T01:37:19;101524.47;;;26.72;20.85
56518;BME280;42419;48.760;2.322;2023-04-05T01:39:45;101532.56;;;26.72;21.52
56518;BME280;42419;48.760;2.322;2023-04-05T01:42:16;101527.94;;;26.74;20.91
56518;BME280;42419;48.760;2.322;2023-04-05T01:44:46;101522.72;;;26.87;20.97
56518;BME280;42419;48.760;2.322;2023-04-05T01:47:11;101527.63;;;26.96;20.83
56518;BME280;42419;48.760;2.322;2023-04-05T01:49:36;101521.91;;;27.02;20.47
56518;BME280;42419;48.760;2.322;2023-04-05T01:52:02;101523.28;;;27.09;20.16
56518;BME280;42419;48.760;2.322;2023-04-05T01:54:27;101514.41;;;27.07;20.32
56518;BME280;42419;48.760;2.322;2023-04-05T01:56:52;101520.59;;;27.09;20.63
56518;BME280;42419;48.760;2.322;2023-04-05T01:59:17;101526.09;;;27.08;20.63
56518;BME280;42419;48.760;2.322;2023-04-05T02:01:43;101521.56;;;27.08;20.61
56518;BME280;42419;48.760;2.322;2023-04-05T02:04:08;101523.53;;;27.05;20.92
56518;BME280;42419;48.760;2.322;2023-04-05T02:06:33;101522.66;;;27.04;20.98
56518;BME280;42419;48.760;2.322;2023-04-05T02:08:59;101527.13;;;27.05;20.57
56518;BME280;42419;48.760;2.322;2023-04-05T02:11:24;101513.53;;;27.07;20.41
56518;BME280;42419;48.760;2.322;2023-04-05T02:13:49;101511.78;;;27.06;20.32
56518;BME280;42419;48.760;2.322;2023-04-05T02:16:14;101498.44;;;27.03;20.67
56518;BME280;42419;48.760;2.322;2023-04-05T02:18:41;101484.31;;;26.98;20.48
56518;BME280;42419;48.760;2.322;2023-04-05T02:21:08;101501.78;;;27.08;20.32
56518;BME280;42419;48.760;2.322;2023-04-05T02:23:35;101514.22;;;27.10;20.46
56518;BME280;42419;48.760;2.322;2023-04-05T02:26:01;101502.53;;;27.10;20.47
56518;BME280;42419;48.760;2.322;2023-04-05T02:28:26;101489.38;;;27.04;20.13
56518;BME280;42419;48.760;2.322;2023-04-05T02:30:52;101493.47;;;27.11;20.34
56518;BME280;42419;48.760;2.322;2023-04-05T02:33:17;101496.88;;;27.14;20.31
56518;BME280;42419;48.760;2.322;2023-04-05T02:35:43;101486.16;;;27.13;20.69
56518;BME280;42419;48.760;2.322;2023-04-05T02:38:08;101472.78;;;27.10;20.33
56518;BME280;42419;48.760;2.322;2023-04-05T02:40:34;101494.59;;;27.22;20.33
56518;BME280;42419;48.760;2.322;2023-04-05T02:43:00;101493.63;;;27.23;20.23
56518;BME280;42419;48.760;2.322;2023-04-05T02:45:26;101487.28;;;27.24;20.34
56518;BME280;42419;48.760;2.322;2023-04-05T02:47:52;101487.28;;;27.24;20.31
56518;BME280;42419;48.760;2.322;2023-04-05T02:50:17;101484.38;;;27.28;20.70
56518;BME280;42419;48.760;2.322;2023-04-05T02:52:48;101484.38;;;27.28;20.38
56518;BME280;42419;48.760;2.322;2023-04-05T02:55:14;101482.28;;;27.33;19.93
56518;BME280;42419;48.760;2.322;2023-04-05T02:57:41;101478.00;;;27.29;20.06
56518;BME280;42419;48.760;2.322;2023-04-05T03:00:07;101476.00;;;27.32;20.25
56518;BME280;42419;48.760;2.322;2023-04-05T03:02:32;101482.00;;;27.37;19.98
56518;BME280;42419;48.760;2.322;2023-04-05T03:04:58;101478.34;;;27.38;19.95
56518;BME280;42419;48.760;2.322;2023-04-05T03:07:26;101477.47;;;27.38;19.97
56518;BME280;42419;48.760;2.322;2023-04-05T03:09:52;101478.28;;;27.40;20.08
56518;BME280;42419;48.760;2.322;2023-04-05T03:12:18;101473.81;;;27.39;20.24
56518;BME280;42419;48.760;2.322;2023-04-05T03:14:43;101471.88;;;27.41;20.00
56518;BME280;42419;48.760;2.322;2023-04-05T03:17:10;101475.38;;;27.43;19.90
56518;BME280;42419;48.760;2.322;2023-04-05T03:19:35;101473.47;;;27.45;19.81
56518;BME280;42419;48.760;2.322;2023-04-05T03:22:01;101473.72;;;27.40;19.85
56518;BME280;42419;48.760;2.322;2023-04-05T03:24:26;101468.56;;;27.36;20.11
56518;BME280;42419;48.760;2.322;2023-04-05T03:26:52;101478.88;;;27.45;19.94
56518;BME280;42419;48.760;2.322;2023-04-05T03:29:17;101475.22;;;27.46;19.71
56518;BME280;42419;48.760;2.322;2023-04-05T03:31:43;101476.09;;;27.46;19.55
56518;BME280;42419;48.760;2.322;2023-04-05T03:34:09;101479.59;;;27.48;20.67
56518;BME280;42419;48.760;2.322;2023-04-05T03:36:34;101485.09;;;27.47;19.98
56518;BME280;42419;48.760;2.322;2023-04-05T03:39:11;101481.50;;;27.46;20.13
56518;BME280;42419;48.760;2.322;2023-04-05T03:41:39;101478.59;;;27.49;19.87
56518;BME280;42419;48.760;2.322;2023-04-05T03:44:06;101483.34;;;27.46;19.88
56518;BME280;42419;48.760;2.322;2023-04-05T03:46:32;101483.34;;;27.46;19.95
56518;BME280;42419;48.760;2.322;2023-04-05T03:48:58;101490.31;;;27.50;19.77
56518;BME280;42419;48.760;2.322;2023-04-05T03:51:23;101481.22;;;27.51;20.11
56518;BME280;42419;48.760;2.322;2023-04-05T03:53:50;101489.34;;;27.51;19.85
56518;BME280;42419;48.760;2.322;2023-04-05T03:56:16;101461.25;;;27.38;19.58
56518;BME280;42419;48.760;2.322;2023-04-05T03:58:42;101485.00;;;27.48;19.57
56518;BME280;42419;48.760;2.322;2023-04-05T04:01:07;101484.75;;;27.53;19.89
56518;BME280;42419;48.760;2.322;2023-04-05T04:03:33;101487.44;;;27.53;19.76
56518;BME280;42419;48.760;2.322;2023-04-05T04:05:58;101472.59;;;27.44;19.78
56518;BME280;42419;48.760;2.322;2023-04-05T04:08:24;101479.31;;;27.53;19.77
56518;BME280;42419;48.760;2.322;2023-04-05T04:10:50;101487.44;;;27.53;20.11
56518;BME280;42419;48.760;2.322;2023-04-05T04:13:15;101485.41;;;27.56;19.83
56518;BME280;42419;48.760;2.322;2023-04-05T04:15:43;101476.44;;;27.56;19.82
56518;BME280;42419;48.760;2.322;2023-04-05T04:18:09;101484.28;;;27.60;19.66
56518;BME280;42419;48.760;2.322;2023-04-05T04:20:34;101478.06;;;27.58;19.71
56518;BME280;42419;48.760;2.322;2023-04-05T04:22:59;101478.00;;;27.60;19.37
56518;BME280;42419;48.760;2.322;2023-04-05T04:25:25;101464.47;;;27.60;19.66
56518;BME280;42419;48.760;2.322;2023-04-05T04:27:55;101461.06;;;27.56;19.75
56518;BME280;42419;48.760;2.322;2023-04-05T04:30:20;101473.09;;;27.66;19.35
56518;BME280;42419;48.760;2.322;2023-04-05T04:32:47;101471.22;;;27.67;19.56
56518;BME280;42419;48.760;2.322;2023-04-05T04:35:17;101471.06;;;27.70;19.82
56518;BME280;42419;48.760;2.322;2023-04-05T04:40:12;101466.53;;;27.71;19.44
56518;BME280;42419;48.760;2.322;2023-04-05T04:42:39;101471.94;;;27.71;19.10
56518;BME280;42419;48.760;2.322;2023-04-05T04:45:08;101465.81;;;27.67;19.69
56518;BME280;42419;48.760;2.322;2023-04-05T04:47:35;101466.41;;;27.72;19.49
56518;BME280;42419;48.760;2.322;2023-04-05T04:50:02;101469.13;;;27.72;19.50
56518;BME280;42419;48.760;2.322;2023-04-05T04:52:32;101467.00;;;27.77;19.36
56518;BME280;42419;48.760;2.322;2023-04-05T04:54:57;101462.56;;;27.76;19.57
56518;BME280;42419;48.760;2.322;2023-04-05T04:57:23;101452.88;;;27.72;19.22
56518;BME280;42419;48.760;2.322;2023-04-05T04:59:49;101462.28;;;27.81;19.67
56518;BME280;42419;48.760;2.322;2023-04-05T05:02:15;101454.59;;;27.89;19.29
56518;BME280;42419;48.760;2.322;2023-04-05T05:04:40;101462.75;;;28.03;19.40
56518;BME280;42419;48.760;2.322;2023-04-05T05:07:06;101455.31;;;28.06;19.27
56518;BME280;42419;48.760;2.322;2023-04-05T05:09:31;101454.94;;;28.13;19.30
56518;BME280;42419;48.760;2.322;2023-04-05T05:11:57;101440.25;;;28.02;19.06
56518;BME280;42419;48.760;2.322;2023-04-05T05:14:23;101459.66;;;28.09;19.18
56518;BME280;42419;48.760;2.322;2023-04-05T05:16:48;101460.47;;;28.11;19.31
56518;BME280;42419;48.760;2.322;2023-04-05T05:19:14;101456.09;;;28.08;19.44
56518;BME280;42419;48.760;2.322;2023-04-05T05:21:39;101463.34;;;28.08;19.22
56518;BME280;42419;48.760;2.322;2023-04-05T05:24:04;101459.66;;;28.09;19.39
56518;BME280;42419;48.760;2.322;2023-04-05T05:26:31;101448.84;;;28.09;19.86
56518;BME280;42419;48.760;2.322;2023-04-05T05:29:00;101460.75;;;28.06;19.96
56518;BME280;42419;48.760;2.322;2023-04-05T05:31:26;101457.16;;;28.06;19.96
56518;BME280;42419;48.760;2.322;2023-04-05T05:33:53;101456.56;;;28.01;20.28
56518;BME280;42419;48.760;2.322;2023-04-05T05:36:18;101466.25;;;28.05;20.11
56518;BME280;42419;48.760;2.322;2023-04-05T05:38:44;101461.97;;;28.01;20.34
56518;BME280;42419;48.760;2.322;2023-04-05T05:41:09;101461.91;;;28.02;20.56
56518;BME280;42419;48.760;2.322;2023-04-05T05:43:34;101452.06;;;28.00;20.70
56518;BME280;42419;48.760;2.322;2023-04-05T05:46:01;101455.50;;;28.03;20.87
56518;BME280;42419;48.760;2.322;2023-04-05T05:48:26;101464.31;;;28.07;20.42
56518;BME280;42419;48.760;2.322;2023-04-05T05:50:51;101458.72;;;28.10;20.25
56518;BME280;42419;48.760;2.322;2023-04-05T05:53:18;101409.31;;;27.77;21.14
56518;BME280;42419;48.760;2.322;2023-04-05T05:55:43;101459.47;;;28.12;20.23
56518;BME280;42419;48.760;2.322;2023-04-05T05:58:09;101460.16;;;28.16;20.01
56518;BME280;42419;48.760;2.322;2023-04-05T06:00:34;101457.19;;;28.20;20.04
56518;BME280;42419;48.760;2.322;2023-04-05T06:03:00;101454.25;;;28.23;19.80
56518;BME280;42419;48.760;2.322;2023-04-05T06:05:25;101462.97;;;28.28;19.97
56518;BME280;42419;48.760;2.322;2023-04-05T06:07:51;101404.31;;;27.99;19.89
56518;BME280;42419;48.760;2.322;2023-04-05T06:10:16;101455.59;;;28.30;19.27
56518;BME280;42419;48.760;2.322;2023-04-05T06:12:42;101458.22;;;28.32;19.91
56518;BME280;42419;48.760;2.322;2023-04-05T06:15:07;101459.78;;;28.36;19.94
56518;BME280;42419;48.760;2.322;2023-04-05T06:17:33;101471.78;;;28.32;19.92
56518;BME280;42419;48.760;2.322;2023-04-05T06:20:04;101448.75;;;28.25;20.09
56518;BME280;42419;48.760;2.322;2023-04-05T06:22:30;101473.03;;;28.40;20.07
56518;BME280;42419;48.760;2.322;2023-04-05T06:24:55;101468.50;;;28.41;19.70
56518;BME280;42419;48.760;2.322;2023-04-05T06:27:20;101463.34;;;28.36;19.92
56518;BME280;42419;48.760;2.322;2023-04-05T06:29:46;101478.38;;;28.42;19.65
56518;BME280;42419;48.760;2.322;2023-04-05T06:32:11;101480.09;;;28.43;19.66
56518;BME280;42419;48.760;2.322;2023-04-05T06:34:36;101479.13;;;28.44;19.33
56518;BME280;42419;48.760;2.322;2023-04-05T06:37:01;101483.78;;;28.42;19.53
56518;BME280;42419;48.760;2.322;2023-04-05T06:39:27;101483.78;;;28.42;19.44
56518;BME280;42419;48.760;2.322;2023-04-05T06:41:52;101485.63;;;28.41;19.45
56518;BME280;42419;48.760;2.322;2023-04-05T06:44:18;101486.56;;;28.40;19.47
56518;BME280;42419;48.760;2.322;2023-04-05T06:46:43;101483.00;;;28.40;19.52
56518;BME280;42419;48.760;2.322;2023-04-05T06:49:08;101480.19;;;28.41;19.36
56518;BME280;42419;48.760;2.322;2023-04-05T06:51:34;101482.13;;;28.39;19.51
56518;BME280;42419;48.760;2.322;2023-04-05T06:53:59;101485.63;;;28.41;19.40
56518;BME280;42419;48.760;2.322;2023-04-05T06:56:24;101486.78;;;28.37;19.62
56518;BME280;42419;48.760;2.322;2023-04-05T06:58:50;101485.69;;;28.40;19.51
56518;BME280;42419;48.760;2.322;2023-04-05T07:01:15;101490.16;;;28.41;19.30
56518;BME280;42419;48.760;2.322;2023-04-05T07:03:41;101496.53;;;28.40;19.50
56518;BME280;42419;48.760;2.322;2023-04-05T07:06:07;101483.56;;;28.31;19.87
56518;BME280;42419;48.760;2.322;2023-04-05T07:08:33;101489.38;;;28.39;19.91
56518;BME280;42419;48.760;2.322;2023-04-05T07:10:59;101475.72;;;28.26;19.55
56518;BME280;42419;48.760;2.322;2023-04-05T07:13:25;101494.03;;;28.37;19.66
56518;BME280;42419;48.760;2.322;2023-04-05T07:15:51;101459.97;;;28.19;19.64
56518;BME280;42419;48.760;2.322;2023-04-05T07:18:17;101480.56;;;28.21;19.68
56518;BME280;42419;48.760;2.322;2023-04-05T07:20:47;101500.63;;;28.33;19.63
56518;BME280;42419;48.760;2.322;2023-04-05T07:23:13;101499.94;;;28.29;19.79
56518;BME280;42419;48.760;2.322;2023-04-05T07:25:39;101500.91;;;28.28;19.93
56518;BME280;42419;48.760;2.322;2023-04-05T07:28:05;101501.19;;;28.24;19.84
56518;BME280;42419;48.760;2.322;2023-04-05T07:30:30;101503.09;;;28.22;20.05
56518;BME280;42419;48.760;2.322;2023-04-05T07:32:56;101487.34;;;28.14;20.03
56518;BME280;42419;48.760;2.322;2023-04-05T07:35:22;101504.94;;;28.21;19.91
56518;BME280;42419;48.760;2.322;2023-04-05T07:37:48;101507.84;;;28.18;20.05
56518;BME280;42419;48.760;2.322;2023-04-05T07:40:13;101505.34;;;28.15;19.85
56518;BME280;42419;48.760;2.322;2023-04-05T07:42:39;101504.75;;;28.10;19.95
56518;BME280;42419;48.760;2.322;2023-04-05T07:45:05;101503.00;;;28.09;20.16
56518;BME280;42419;48.760;2.322;2023-04-05T07:47:34;101489.06;;;28.01;20.24
56518;BME280;42419;48.760;2.322;2023-04-05T07:50:00;101491.69;;;28.02;20.46
56518;BME280;42419;48.760;2.322;2023-04-05T07:52:25;101499.00;;;28.00;20.11
56518;BME280;42419;48.760;2.322;2023-04-05T07:54:50;101488.22;;;27.99;20.10
56518;BME280;42419;48.760;2.322;2023-04-05T07:57:16;101486.59;;;27.96;19.95
56518;BME280;42419;48.760;2.322;2023-04-05T07:59:48;101486.69;;;27.95;20.40
56518;BME280;42419;48.760;2.322;2023-04-05T08:02:15;101467.63;;;27.82;20.15
56518;BME280;42419;48.760;2.322;2023-04-05T08:04:41;101475.38;;;27.88;20.31
56518;BME280;42419;48.760;2.322;2023-04-05T08:07:06;101475.53;;;27.85;20.10
56518;BME280;42419;48.760;2.322;2023-04-05T08:09:31;101474.84;;;27.82;20.11
56518;BME280;42419;48.760;2.322;2023-04-05T08:11:56;101425.50;;;27.48;20.43
56518;BME280;42419;48.760;2.322;2023-04-05T08:14:22;101483.94;;;27.81;20.11
56518;BME280;42419;48.760;2.322;2023-04-05T08:16:47;101485.88;;;27.79;20.18
56518;BME280;42419;48.760;2.322;2023-04-05T08:19:15;101485.97;;;27.77;19.84
56518;BME280;42419;48.760;2.322;2023-04-05T08:21:40;101490.50;;;27.77;20.26
56518;BME280;42419;48.760;2.322;2023-04-05T08:24:05;101491.56;;;27.74;20.21
56518;BME280;42419;48.760;2.322;2023-04-05T08:26:31;101492.53;;;27.73;20.18
56518;BME280;42419;48.760;2.322;2023-04-05T08:28:56;101494.47;;;27.71;20.08
56518;BME280;42419;48.760;2.322;2023-04-05T08:31:21;101494.53;;;27.70;20.44
56518;BME280;42419;48.760;2.322;2023-04-05T08:33:46;101497.19;;;27.71;20.19
56518;BME280;42419;48.760;2.322;2023-04-05T08:36:12;101496.47;;;27.67;20.04
56518;BME280;42419;48.760;2.322;2023-04-05T08:38:37;101497.53;;;27.65;20.64
56518;BME280;42419;48.760;2.322;2023-04-05T08:41:29;101495.69;;;27.65;20.46
56518;BME280;42419;48.760;2.322;2023-04-05T08:43:55;101494.81;;;27.65;20.42
56518;BME280;42419;48.760;2.322;2023-04-05T08:46:24;101494.91;;;27.63;20.61
56518;BME280;42419;48.760;2.322;2023-04-05T08:48:49;101480.88;;;27.57;20.56
56518;BME280;42419;48.760;2.322;2023-04-05T08:51:19;101485.50;;;27.55;21.08
56518;BME280;42419;48.760;2.322;2023-04-05T08:53:45;101493.25;;;27.61;20.94
56518;BME280;42419;48.760;2.322;2023-04-05T08:56:14;101498.56;;;27.62;20.49
56518;BME280;42419;48.760;2.322;2023-04-05T08:58:48;101468.66;;;27.50;20.99
56518;BME280;42419;48.760;2.322;2023-04-05T09:01:17;101488.81;;;27.60;20.92
56518;BME280;42419;48.760;2.322;2023-04-05T09:03:44;101498.56;;;27.62;20.93
56518;BME280;42419;48.760;2.322;2023-04-05T09:06:11;101497.72;;;27.62;20.59
56518;BME280;42419;48.760;2.322;2023-04-05T09:08:37;101499.44;;;27.63;20.51
56518;BME280;42419;48.760;2.322;2023-04-05T09:11:03;101495.84;;;27.62;20.62
56518;BME280;42419;48.760;2.322;2023-04-05T09:13:28;101495.97;;;27.61;20.84
56518;BME280;42419;48.760;2.322;2023-04-05T09:15:54;101494.13;;;27.61;20.70
56518;BME280;42419;48.760;2.322;2023-04-05T09:18:20;101498.47;;;27.64;20.80
56518;BME280;42419;48.760;2.322;2023-04-05T09:20:45;101481.22;;;27.51;20.59
56518;BME280;42419;48.760;2.322;2023-04-05T09:23:10;101498.41;;;27.65;20.49
56518;BME280;42419;48.760;2.322;2023-04-05T09:25:37;101498.28;;;27.67;20.95
56518;BME280;42419;48.760;2.322;2023-04-05T09:28:09;101493.66;;;27.69;20.93
56518;BME280;42419;48.760;2.322;2023-04-05T09:30:36;101493.88;;;27.66;21.13
56518;BME280;42419;48.760;2.322;2023-04-05T09:33:03;101473.72;;;27.56;21.40
56518;BME280;42419;48.760;2.322;2023-04-05T09:35:32;101495.69;;;27.65;21.44
56518;BME280;42419;48.760;2.322;2023-04-05T09:38:02;101494.75;;;27.66;21.11
56518;BME280;42419;48.760;2.322;2023-04-05T09:40:45;101491.03;;;27.67;21.37
56518;BME280;42419;48.760;2.322;2023-04-05T09:43:11;101496.19;;;27.72;21.29
56518;BME280;42419;48.760;2.322;2023-04-05T09:45:38;101482.22;;;27.80;21.19
56518;BME280;42419;48.760;2.322;2023-04-05T09:48:05;101469.03;;;27.74;20.75
56518;BME280;42419;48.760;2.322;2023-04-05T09:50:31;101479.22;;;27.84;21.09
56518;BME280;42419;48.760;2.322;2023-04-05T09:53:11;101477.38;;;27.85;21.14
56518;BME280;42419;48.760;2.322;2023-04-05T09:55:45;101482.91;;;27.83;21.05
56518;BME280;42419;48.760;2.322;2023-04-05T09:58:20;101478.63;;;27.79;21.04
56518;BME280;42419;48.760;2.322;2023-04-05T10:00:49;101479.41;;;27.81;21.17
56518;BME280;42419;48.760;2.322;2023-04-05T10:03:18;101472.25;;;27.80;20.76
56518;BME280;42419;48.760;2.322;2023-04-05T10:05:45;101470.50;;;27.79;21.14
56518;BME280;42419;48.760;2.322;2023-04-05T10:08:11;101475.06;;;27.79;20.95
56518;BME280;42419;48.760;2.322;2023-04-05T10:10:45;101476.97;;;27.77;21.00
56518;BME280;42419;48.760;2.322;2023-04-05T10:13:11;101474.53;;;27.72;20.96
56518;BME280;42419;48.760;2.322;2023-04-05T10:15:37;101464.25;;;27.63;21.25
56518;BME280;42419;48.760;2.322;2023-04-05T10:18:09;101473.78;;;27.70;21.40
56518;BME280;42419;48.760;2.322;2023-04-05T10:20:41;101460.59;;;27.64;21.13
56518;BME280;42419;48.760;2.322;2023-04-05T10:23:25;101451.28;;;27.54;21.30
56518;BME280;42419;48.760;2.322;2023-04-05T10:28:34;101463.50;;;27.61;21.00
56518;BME280;42419;48.760;2.322;2023-04-05T10:33:39;101459.41;;;27.54;21.64
56518;BME280;42419;48.760;2.322;2023-04-05T10:39:03;101453.66;;;27.44;21.71
56518;BME280;42419;48.760;2.322;2023-04-05T10:41:41;101444.75;;;27.42;21.45
56518;BME280;42419;48.760;2.322;2023-04-05T10:44:08;101446.94;;;27.36;21.70
56518;BME280;42419;48.760;2.322;2023-04-05T10:46:36;101445.28;;;27.33;21.69
56518;BME280;42419;48.760;2.322;2023-04-05T10:49:21;101441.03;;;27.29;21.64
56518;BME280;42419;48.760;2.322;2023-04-05T10:51:47;101441.38;;;27.23;21.48
56518;BME280;42419;48.760;2.322;2023-04-05T10:54:12;101429.47;;;27.11;21.98
56518;BME280;42419;48.760;2.322;2023-04-05T10:56:41;101433.03;;;27.12;21.76
56518;BME280;42419;48.760;2.322;2023-04-05T10:59:07;101431.47;;;27.08;22.21
56518;BME280;42419;48.760;2.322;2023-04-05T11:01:34;101424.50;;;27.04;21.86
56518;BME280;42419;48.760;2.322;2023-04-05T11:04:10;101409.22;;;26.87;22.05
56518;BME280;42419;48.760;2.322;2023-04-05T11:06:37;101413.06;;;26.83;21.82
56518;BME280;42419;48.760;2.322;2023-04-05T11:09:15;101424.66;;;26.85;22.55
56518;BME280;42419;48.760;2.322;2023-04-05T11:11:42;101422.66;;;26.73;22.40
56518;BME280;42419;48.760;2.322;2023-04-05T11:14:25;101423.50;;;26.73;22.04
56518;BME280;42419;48.760;2.322;2023-04-05T11:16:52;101419.69;;;26.62;22.55
56518;BME280;42419;48.760;2.322;2023-04-05T11:22:13;101420.88;;;26.56;22.34
56518;BME280;42419;48.760;2.322;2023-04-05T11:24:50;101420.28;;;26.51;22.61
56518;BME280;42419;48.760;2.322;2023-04-05T11:27:26;101416.97;;;26.46;23.08
56518;BME280;42419;48.760;2.322;2023-04-05T11:29:52;101416.38;;;26.41;22.94
56518;BME280;42419;48.760;2.322;2023-04-05T11:32:19;101410.34;;;26.36;23.18
56518;BME280;42419;48.760;2.322;2023-04-05T11:34:56;101411.59;;;26.29;23.21
56518;BME280;42419;48.760;2.322;2023-04-05T11:37:23;101413.69;;;26.24;23.22
56518;BME280;42419;48.760;2.322;2023-04-05T11:39:48;101418.34;;;26.20;22.87
56518;BME280;42419;48.760;2.322;2023-04-05T11:42:13;101410.44;;;26.17;23.19
56518;BME280;42419;48.760;2.322;2023-04-05T11:47:09;101401.97;;;26.08;23.78
56518;BME280;42419;48.760;2.322;2023-04-05T11:49:38;101394.91;;;26.05;23.50
56518;BME280;42419;48.760;2.322;2023-04-05T11:52:14;101387.94;;;26.01;23.73
56518;BME280;42419;48.760;2.322;2023-04-05T11:54:41;101388.19;;;25.97;22.98
56518;BME280;42419;48.760;2.322;2023-04-05T11:57:28;101387.47;;;25.93;23.39
56518;BME280;42419;48.760;2.322;2023-04-05T11:59:53;101363.16;;;25.77;23.56
56518;BME280;42419;48.760;2.322;2023-04-05T12:02:20;101381.47;;;25.88;23.79
56518;BME280;42419;48.760;2.322;2023-04-05T12:04:56;101377.16;;;25.84;23.78
56518;BME280;42419;48.760;2.322;2023-04-05T12:07:25;101374.72;;;25.79;23.91
56518;BME280;42419;48.760;2.322;2023-04-05T12:10:07;101370.19;;;25.80;23.49
56518;BME280;42419;48.760;2.322;2023-04-05T12:12:41;101371.19;;;25.79;23.44
56518;BME280;42419;48.760;2.322;2023-04-05T12:15:09;101361.47;;;25.75;23.64
56518;BME280;42419;48.760;2.322;2023-04-05T12:17:48;101369.56;;;25.75;24.14
56518;BME280;42419;48.760;2.322;2023-04-05T12:20:21;101365.16;;;25.74;23.93
56518;BME280;42419;48.760;2.322;2023-04-05T12:22:48;101357.19;;;25.71;23.60
56518;BME280;42419;48.760;2.322;2023-04-05T12:25:15;101360.84;;;25.70;23.61
56518;BME280;42419;48.760;2.322;2023-04-05T12:27:41;101357.50;;;25.65;23.68
56518;BME280;42419;48.760;2.322;2023-04-05T12:30:11;101359.41;;;25.63;23.84
56518;BME280;42419;48.760;2.322;2023-04-05T12:33:07;101365.75;;;25.62;23.79
56518;BME280;42419;48.760;2.322;2023-04-05T12:35:33;101358.69;;;25.59;23.54
56518;BME280;42419;48.760;2.322;2023-04-05T12:38:03;101363.16;;;25.60;24.16
56518;BME280;42419;48.760;2.322;2023-04-05T12:40:30;101344.66;;;25.53;24.10
56518;BME280;42419;48.760;2.322;2023-04-05T12:43:01;101344.66;;;25.53;23.85
56518;BME280;42419;48.760;2.322;2023-04-05T12:45:28;101345.38;;;25.56;24.01
56518;BME280;42419;48.760;2.322;2023-04-05T12:47:57;101338.41;;;25.52;24.37
56518;BME280;42419;48.760;2.322;2023-04-05T12:50:27;101336.56;;;25.53;24.27
56518;BME280;42419;48.760;2.322;2023-04-05T12:52:57;101332.03;;;25.53;24.09
56518;BME280;42419;48.760;2.322;2023-04-05T12:55:24;101323.06;;;25.53;23.90
56518;BME280;42419;48.760;2.322;2023-04-05T12:57:54;101325.94;;;25.49;24.41
56518;BME280;42419;48.760;2.322;2023-04-05T13:00:21;101331.28;;;25.51;24.49
56518;BME280;42419;48.760;2.322;2023-04-05T13:02:49;101319.84;;;25.46;23.92
56518;BME280;42419;48.760;2.322;2023-04-05T13:05:18;101304.09;;;25.38;24.19
56518;BME280;42419;48.760;2.322;2023-04-05T13:07:43;101309.13;;;25.44;24.18
56518;BME280;42419;48.760;2.322;2023-04-05T13:10:09;101318.81;;;25.48;24.24
56518;BME280;42419;48.760;2.322;2023-04-05T13:12:34;101307.25;;;25.46;24.30
56518;BME280;42419;48.760;2.322;2023-04-05T13:15:00;101249.03;;;25.08;24.05
56518;BME280;42419;48.760;2.322;2023-04-05T13:17:25;101304.63;;;25.45;23.88
56518;BME280;42419;48.760;2.322;2023-04-05T13:19:50;101288.06;;;25.35;24.19